Time;durP1;ratioP1;P1;durP2;ratioP2;P2;SDS_P1;SDS_P2;PMS_P1;PMS_P2;Temp;Humidity;BMP_temperature;BMP_pressure;BME280_temperature;BME280_humidity;BME280_pressure;Samples;Min_cycle;Max_cycle;Signal;HPM_P1;HPM_P2
2021/12/04 00:02:03;;;;;;;1.90;1.80;;;;;;;3.95;67.84;97584.50;4993272;28;102779;-63
2021/12/04 00:04:33;;;;;;;3.17;2.03;;;;;;;3.93;68.09;97587.19;4991749;28;104141;-63
2021/12/04 00:07:02;;;;;;;2.20;2.00;;;;;;;3.92;67.55;97590.78;4991447;28;104685;-63
2021/12/04 00:09:30;;;;;;;2.43;1.90;;;;;;;3.99;67.84;97584.19;4990137;28;102796;-63
2021/12/04 00:12:00;;;;;;;3.10;2.00;;;;;;;4.01;67.30;97578.91;4991347;28;103111;-63
2021/12/04 00:14:29;;;;;;;2.67;1.97;;;;;;;4.08;67.77;97572.31;4991819;28;103277;-63
2021/12/04 00:16:59;;;;;;;1.90;1.73;;;;;;;4.07;67.76;97563.66;4985627;28;103211;-63
2021/12/04 00:19:28;;;;;;;2.20;1.80;;;;;;;3.98;67.66;97558.19;4987781;28;102728;-63
2021/12/04 00:21:57;;;;;;;1.73;1.63;;;;;;;4.02;67.92;97564.88;4990092;28;102673;-64
2021/12/04 00:24:26;;;;;;;2.73;2.07;;;;;;;4.04;67.98;97542.94;4973529;28;103285;-64
2021/12/04 00:26:56;;;;;;;2.73;2.20;;;;;;;4.06;68.54;97541.06;4974965;28;103196;-63
2021/12/04 00:29:25;;;;;;;2.60;1.90;;;;;;;4.05;67.58;97534.16;4974821;28;102755;-63
2021/12/04 00:31:58;;;;;;;2.27;2.00;;;;;;;4.06;68.01;97541.06;4988277;28;102887;-63
2021/12/04 00:34:29;;;;;;;2.03;1.77;;;;;;;4.10;67.74;97537.31;4992837;28;104172;-64
2021/12/04 00:37:26;;;;;;;2.30;1.80;;;;;;;4.14;67.94;97529.28;4993240;28;103088;-64
2021/12/04 00:51:10;;;;;;;2.93;2.57;;;;;;;4.24;67.97;97522.53;4989948;28;102792;-64
2021/12/04 00:53:39;;;;;;;3.13;2.77;;;;;;;4.20;68.17;97521.03;4991219;28;102897;-63
2021/12/04 00:56:07;;;;;;;3.43;3.00;;;;;;;4.12;69.13;97524.16;4991708;28;103182;-63
2021/12/04 00:58:35;;;;;;;3.63;2.30;;;;;;;4.22;68.86;97513.94;4974032;28;103328;-63
2021/12/04 01:01:04;;;;;;;2.67;2.47;;;;;;;4.33;68.25;97495.75;4990220;28;102721;-63
2021/12/04 01:03:36;;;;;;;4.50;2.50;;;;;;;4.34;68.95;97493.06;4989373;28;103250;-63
2021/12/04 01:06:06;;;;;;;5.50;3.50;;;;;;;4.30;68.87;97490.72;4990938;28;103256;-62
2021/12/04 01:08:35;;;;;;;4.47;3.97;;;;;;;4.16;69.76;97482.94;4990313;28;103246;-62
2021/12/04 01:11:06;;;;;;;3.87;3.40;;;;;;;3.99;70.46;97476.22;4991200;28;102676;-63
2021/12/04 01:13:34;;;;;;;4.60;3.47;;;;;;;4.14;71.25;97469.16;4990632;28;103086;-63
2021/12/04 01:16:04;;;;;;;4.77;3.67;;;;;;;4.02;71.39;97471.63;4971940;28;104228;-63
2021/12/04 01:18:34;;;;;;;3.33;3.03;;;;;;;4.10;72.82;97463.28;4992158;28;103018;-63
2021/12/04 01:21:02;;;;;;;4.03;3.40;;;;;;;4.12;71.64;97452.75;4991163;28;102685;-63
2021/12/04 01:23:30;;;;;;;3.90;3.47;;;;;;;4.10;72.40;97451.06;4973469;28;103151;-63
2021/12/04 01:26:00;;;;;;;5.20;3.10;;;;;;;4.14;72.63;97443.84;4990538;28;103204;-63
2021/12/04 01:28:29;;;;;;;3.50;3.20;;;;;;;4.09;73.01;97436.34;4990033;28;103233;-63
2021/12/04 01:30:57;;;;;;;4.50;3.57;;;;;;;4.04;73.87;97440.19;4990639;28;102700;-63
2021/12/04 01:33:25;;;;;;;4.53;3.67;;;;;;;4.01;74.56;97435.97;4991883;28;103842;-63
2021/12/04 01:35:55;;;;;;;3.50;3.10;;;;;;;3.80;76.56;97429.56;4995038;28;104184;-63
2021/12/04 01:38:25;;;;;;;3.93;2.97;;;;;;;3.87;77.63;97430.84;4992226;28;103206;-64
2021/12/04 01:40:54;;;;;;;3.57;3.23;;;;;;;3.79;77.89;97430.47;4995545;28;102700;-64
2021/12/04 01:43:26;;;;;;;4.43;3.00;;;;;;;3.75;79.35;97431.63;4998172;28;102687;-64
2021/12/04 01:45:55;;;;;;;4.13;3.70;;;;;;;3.76;79.45;97433.28;4995259;28;104109;-64
2021/12/04 01:48:23;;;;;;;3.73;3.30;;;;;;;3.78;79.54;97435.81;4975359;28;103247;-64
2021/12/04 01:50:55;;;;;;;3.53;3.23;;;;;;;3.90;79.71;97435.03;4978878;28;102818;-64
2021/12/04 01:53:24;;;;;;;3.77;3.37;;;;;;;3.84;81.34;97431.03;4994021;28;102683;-65
2021/12/04 01:55:53;;;;;;;4.87;3.57;;;;;;;3.77;82.24;97423.69;4977977;28;103221;-64
2021/12/04 01:58:27;;;;;;;3.90;3.40;;;;;;;3.76;84.08;97420.22;4995628;28;103211;-65
2021/12/04 02:00:57;;;;;;;3.03;2.40;;;;;;;3.63;85.78;97424.56;4988996;28;102754;-64
2021/12/04 02:03:26;;;;;;;3.63;2.47;;;;;;;3.77;88.42;97411.47;4993696;28;102811;-65
2021/12/04 02:05:54;;;;;;;2.40;2.03;;;;;;;3.80;90.19;97413.88;4976198;28;103224;-64
2021/12/04 02:08:24;;;;;;;2.77;2.40;;;;;;;3.79;90.86;97401.75;4994548;28;103195;-64
2021/12/04 02:10:54;;;;;;;2.50;2.30;;;;;;;3.82;91.63;97391.09;4995585;28;102738;-64
2021/12/04 02:13:23;;;;;;;2.83;2.00;;;;;;;3.83;92.70;97382.34;4992747;28;104066;-65
2021/12/04 02:15:53;;;;;;;2.70;2.50;;;;;;;3.82;92.88;97380.66;4994491;28;103330;-65
2021/12/04 02:18:23;;;;;;;2.53;2.23;;;;;;;3.83;92.96;97377.09;4993061;28;105199;-66
2021/12/04 02:20:53;;;;;;;2.20;1.73;;;;;;;3.82;92.99;97379.81;4994988;28;102995;-64
2021/12/04 02:23:21;;;;;;;2.07;1.87;;;;;;;3.87;93.95;97377.75;4993665;28;102714;-64
2021/12/04 02:25:49;;;;;;;3.30;2.50;;;;;;;3.77;95.25;97371.44;4989095;28;103308;-65
2021/12/04 02:28:17;;;;;;;3.30;2.37;;;;;;;3.76;95.02;97360.16;4976088;28;103327;-64
2021/12/04 02:30:48;;;;;;;4.63;2.37;;;;;;;3.69;96.27;97358.88;4991991;28;102686;-64
2021/12/04 02:33:17;;;;;;;2.20;2.00;;;;;;;3.74;95.65;97361.19;4994428;28;102672;-64
2021/12/04 02:35:48;;;;;;;2.20;2.00;;;;;;;3.79;94.89;97356.53;4995537;28;103298;-64
2021/12/04 02:38:23;;;;;;;5.30;2.80;;;;;;;3.74;95.88;97351.59;4990790;28;103237;-64
2021/12/04 02:40:52;;;;;;;3.40;2.10;;;;;;;3.66;96.40;97343.41;4993921;28;102803;-65
2021/12/04 02:43:20;;;;;;;3.07;2.77;;;;;;;3.66;95.72;97347.78;4994464;28;102763;-64
2021/12/04 02:45:48;;;;;;;3.60;3.10;;;;;;;3.65;95.85;97336.50;4991984;28;103255;-64
2021/12/04 02:48:17;;;;;;;4.03;3.37;;;;;;;3.65;95.95;97340.91;4992503;28;103315;-64
2021/12/04 02:50:46;;;;;;;5.00;3.33;;;;;;;3.47;96.19;97342.94;4992370;28;102726;-64
2021/12/04 02:53:15;;;;;;;4.23;3.37;;;;;;;3.38;96.49;97320.88;4993377;28;104081;-64
2021/12/04 02:55:47;;;;;;;3.97;3.13;;;;;;;3.43;96.06;97318.81;4993336;28;103225;-64
2021/12/04 02:58:16;;;;;;;4.13;3.17;;;;;;;3.43;95.98;97315.34;4993417;28;103253;-64
2021/12/04 03:00:48;;;;;;;4.20;3.17;;;;;;;3.39;96.54;97313.91;4990440;28;103034;-64
2021/12/04 03:03:17;;;;;;;4.90;3.13;;;;;;;3.45;96.05;97308.28;4990265;28;102782;-64
2021/12/04 03:05:49;;;;;;;3.67;3.17;;;;;;;3.42;96.68;97306.69;4994418;28;103220;-64
2021/12/04 03:08:19;;;;;;;5.13;3.50;;;;;;;3.40;97.16;97299.88;4994561;28;103130;-64
2021/12/04 03:10:50;;;;;;;3.57;3.27;;;;;;;3.43;96.84;97299.69;4991276;28;102766;-64
2021/12/04 03:13:20;;;;;;;6.03;3.93;;;;;;;3.32;97.93;97299.56;4990710;28;102789;-66
2021/12/04 03:15:56;;;;;;;5.20;3.60;;;;;;;3.38;97.23;97293.94;4992411;28;102972;-66
2021/12/04 03:18:24;;;;;;;6.63;4.37;;;;;;;3.27;98.25;97291.19;4993457;28;103484;-66
2021/12/04 03:20:55;;;;;;;5.33;4.33;;;;;;;3.19;99.20;97291.69;4992172;28;103144;-66
2021/12/04 03:23:28;;;;;;;5.60;3.73;;;;;;;3.26;99.44;97281.69;4993980;28;102736;-66
2021/12/04 03:26:04;;;;;;;4.37;3.97;;;;;;;3.24;98.97;97273.13;4993405;28;104186;-66
2021/12/04 03:28:32;;;;;;;5.33;4.20;;;;;;;3.28;99.61;97261.56;4993352;28;103270;-66
2021/12/04 03:31:05;;;;;;;5.20;3.30;;;;;;;3.39;99.65;97266.91;4992281;28;102684;-66
2021/12/04 03:41:51;;;;;;;5.47;4.97;;;;;;;3.29;100.00;97229.28;4993394;28;102672;-66
2021/12/04 03:44:20;;;;;;;7.53;5.80;;;;;;;3.25;100.00;97231.28;4974633;28;102954;-66
2021/12/04 03:46:48;;;;;;;6.90;6.03;;;;;;;3.27;100.00;97228.56;4992094;28;104132;-66
2021/12/04 03:49:16;;;;;;;5.40;4.67;;;;;;;3.30;100.00;97220.53;4993615;28;103301;-66
2021/12/04 03:51:44;;;;;;;6.43;5.33;;;;;;;3.28;100.00;97207.59;4992887;28;102706;-66
2021/12/04 03:54:13;;;;;;;6.00;4.93;;;;;;;3.30;100.00;97207.47;4974735;28;104174;-66
2021/12/04 03:56:41;;;;;;;8.37;6.53;;;;;;;3.25;100.00;97201.72;4991672;28;104068;-64
2021/12/04 03:59:11;;;;;;;7.57;6.50;;;;;;;3.33;100.00;97196.81;4992785;28;103296;-64
2021/12/04 04:01:39;;;;;;;6.73;5.40;;;;;;;3.35;100.00;97197.56;4992379;28;102694;-64
2021/12/04 04:04:07;;;;;;;6.90;5.60;;;;;;;3.32;98.96;97197.75;4990945;28;102693;-66
2021/12/04 04:06:35;;;;;;;7.87;6.77;;;;;;;3.10;100.00;97203.56;4992044;28;103802;-66
2021/12/04 04:09:04;;;;;;;6.63;5.53;;;;;;;3.28;100.00;97193.69;4988234;28;103240;-66
2021/12/04 04:11:36;;;;;;;7.20;5.50;;;;;;;3.32;100.00;97187.31;4991500;28;102796;-64
2021/12/04 04:14:04;;;;;;;6.33;5.70;;;;;;;3.21;99.56;97190.66;4992171;28;103179;-64
2021/12/04 04:16:37;;;;;;;7.50;6.30;;;;;;;3.30;100.00;97178.75;4974541;28;103276;-64
2021/12/04 04:19:08;;;;;;;7.30;6.23;;;;;;;3.25;100.00;97173.03;4991415;28;103177;-66
2021/12/04 04:21:41;;;;;;;7.67;6.50;;;;;;;3.28;100.00;97167.59;4995949;28;102783;-64
2021/12/04 04:24:10;;;;;;;7.73;6.40;;;;;;;3.28;100.00;97165.81;4991218;28;102750;-64
2021/12/04 04:26:40;;;;;;;6.63;5.97;;;;;;;3.29;100.00;97171.84;4988582;28;104254;-64
2021/12/04 04:29:09;;;;;;;8.57;6.67;;;;;;;3.29;100.00;97161.41;4990217;28;103328;-64
2021/12/04 04:31:45;;;;;;;7.67;6.80;;;;;;;3.23;100.00;97156.63;4991257;28;102670;-66
2021/12/04 04:34:18;;;;;;;8.37;7.07;;;;;;;3.23;100.00;97151.41;4990954;28;102760;-64
2021/12/04 04:36:59;;;;;;;7.73;6.20;;;;;;;3.26;100.00;97144.19;4970819;28;104637;-64
2021/12/04 04:39:57;;;;;;;7.60;6.80;;;;;;;3.26;100.00;97135.53;4975310;28;103369;-64
2021/12/04 04:59:17;;;;;;;6.20;5.00;;;;;;;3.33;100.00;97121.13;4991789;28;103263;-66
2021/12/04 05:12:51;;;;;;;7.17;5.63;;;;;;;3.55;100.00;97104.81;4989577;28;103169;-66
2021/12/04 05:15:33;;;;;;;5.83;5.23;;;;;;;3.53;100.00;97102.34;4971921;28;102721;-66
2021/12/04 05:18:10;;;;;;;7.73;5.77;;;;;;;3.47;100.00;97092.31;4992294;28;104567;-66
2021/12/04 05:20:40;;;;;;;6.10;4.93;;;;;;;3.49;100.00;97087.81;4991288;28;104233;-68
2021/12/04 05:23:10;;;;;;;5.43;4.90;;;;;;;3.55;100.00;97090.00;4991429;28;103246;-71
2021/12/04 05:25:41;;;;;;;5.17;4.50;;;;;;;3.55;100.00;97083.94;4992634;28;102774;-70
2021/12/04 05:28:09;;;;;;;5.73;4.43;;;;;;;3.55;100.00;97074.31;4992489;28;102886;-70
2021/12/04 05:30:37;;;;;;;5.23;4.67;;;;;;;3.56;100.00;97073.41;4991903;28;103416;-64
2021/12/04 05:33:06;;;;;;;6.67;5.07;;;;;;;3.59;100.00;97072.34;4976108;28;103236;-70
2021/12/04 05:35:34;;;;;;;5.60;4.60;;;;;;;3.70;100.00;97075.88;4973713;28;102830;-64
2021/12/04 05:38:04;;;;;;;10.20;5.03;;;;;;;3.65;100.00;97072.72;4991417;28;102869;-65
2021/12/04 05:40:32;;;;;;;5.43;4.93;;;;;;;3.62;100.00;97072.13;4983032;28;103306;-65
2021/12/04 05:43:02;;;;;;;5.07;4.33;;;;;;;3.71;100.00;97074.91;4991288;28;103272;-67
2021/12/04 05:45:33;;;;;;;5.53;4.60;;;;;;;3.74;100.00;97069.47;4989470;28;102856;-65
2021/12/04 05:48:05;;;;;;;4.60;4.10;;;;;;;3.74;100.00;97066.03;4990598;28;104251;-66
2021/12/04 05:53:23;;;;;;;6.37;4.30;;;;;;;3.73;100.00;97060.00;4981247;28;102788;-66
2021/12/04 05:55:55;;;;;;;5.60;4.47;;;;;;;3.71;100.00;97056.63;4981279;28;102752;-66
2021/12/04 05:58:27;;;;;;;4.83;4.43;;;;;;;3.78;100.00;97050.06;4986185;28;102682;-66
2021/12/04 06:00:58;;;;;;;5.90;4.80;;;;;;;3.80;100.00;97053.38;4983186;28;103467;-67
2021/12/04 06:03:26;;;;;;;7.47;5.13;;;;;;;3.74;100.00;97059.03;4983816;28;103259;-67
2021/12/04 06:05:54;;;;;;;5.27;4.77;;;;;;;3.55;100.00;97057.81;4972979;28;102874;-66
2021/12/04 06:08:24;;;;;;;5.20;4.70;;;;;;;3.74;100.00;97043.38;4987010;28;103847;-65
2021/12/04 06:10:53;;;;;;;5.63;5.13;;;;;;;3.76;100.00;97049.31;4963008;28;103274;-65
2021/12/04 06:13:21;;;;;;;5.33;4.57;;;;;;;3.63;100.00;97040.69;4982626;28;103144;-65
2021/12/04 06:15:53;;;;;;;4.97;4.33;;;;;;;3.75;100.00;97044.19;4968214;28;102773;-64
2021/12/04 06:18:23;;;;;;;4.90;4.30;;;;;;;3.84;100.00;97043.56;4990201;28;103872;-64
2021/12/04 06:23:39;;;;;;;6.87;5.90;;;;;;;3.42;100.00;97047.41;4994449;28;103213;-66
2021/12/04 06:26:07;;;;;;;5.60;4.50;;;;;;;3.56;100.00;97044.69;4994047;28;102719;-64
2021/12/04 06:28:36;;;;;;;5.17;4.53;;;;;;;3.75;100.00;97044.19;4993406;28;102903;-63
2021/12/04 06:31:07;;;;;;;6.27;5.27;;;;;;;3.82;100.00;97030.59;4987317;28;103466;-63
2021/12/04 06:33:35;;;;;;;5.23;4.63;;;;;;;3.83;100.00;97024.44;4993739;28;103395;-70
2021/12/04 06:36:04;;;;;;;8.00;6.27;;;;;;;3.61;100.00;97026.91;4993865;28;102647;-70
2021/12/04 06:38:35;;;;;;;6.77;5.23;;;;;;;3.79;100.00;97032.59;4975543;28;103919;-70
2021/12/04 06:41:08;;;;;;;5.10;4.50;;;;;;;3.86;100.00;97036.44;4991957;28;104007;-70
2021/12/04 06:43:40;;;;;;;9.80;6.37;;;;;;;3.39;100.00;97037.19;4994271;28;102979;-70
2021/12/04 06:46:09;;;;;;;9.13;6.40;;;;;;;3.34;100.00;97024.44;4974909;28;102814;-70
2021/12/04 06:48:42;;;;;;;8.40;6.10;;;;;;;3.44;100.00;97024.63;4994946;28;102778;-70
2021/12/04 06:51:25;;;;;;;8.63;6.67;;;;;;;3.37;100.00;97028.59;4975181;28;104275;-64
2021/12/04 06:53:57;;;;;;;10.37;6.57;;;;;;;3.32;100.00;97021.09;4993936;28;103217;-64
2021/12/04 06:56:32;;;;;;;8.47;6.50;;;;;;;3.48;100.00;97007.84;4994389;28;102689;-63
2021/12/04 06:59:05;;;;;;;8.70;7.37;;;;;;;3.45;100.00;97010.66;4993152;28;102950;-63
2021/12/04 07:01:34;;;;;;;8.77;6.50;;;;;;;3.32;100.00;97007.22;4995160;28;102975;-64
2021/12/04 07:04:02;;;;;;;7.67;6.87;;;;;;;3.38;100.00;97009.41;4992452;28;103207;-63
2021/12/04 07:06:30;;;;;;;8.47;7.07;;;;;;;3.33;100.00;97014.13;4994204;28;102909;-63
2021/12/04 07:08:58;;;;;;;8.00;6.53;;;;;;;3.39;100.00;97004.09;4995930;28;102769;-64
2021/12/04 07:11:29;;;;;;;9.53;6.97;;;;;;;3.34;100.00;97007.97;4995797;28;103277;-63
2021/12/04 07:13:57;;;;;;;8.77;7.53;;;;;;;3.26;100.00;97011.09;4993539;28;102981;-63
2021/12/04 07:16:25;;;;;;;10.53;7.27;;;;;;;3.16;100.00;97009.22;4993590;28;102710;-63
2021/12/04 07:18:54;;;;;;;7.73;6.63;;;;;;;3.27;100.00;97004.09;4993853;28;102744;-63
2021/12/04 07:21:22;;;;;;;8.93;7.00;;;;;;;3.22;100.00;97006.19;4976256;28;104488;-63
2021/12/04 07:23:50;;;;;;;10.97;8.00;;;;;;;3.26;100.00;97005.03;4994125;28;103145;-64
2021/12/04 07:26:19;;;;;;;9.87;6.73;;;;;;;3.24;100.00;97006.91;4993855;28;103326;-63
2021/12/04 07:28:49;;;;;;;12.17;6.87;;;;;;;3.16;100.00;96999.63;4973550;28;102640;-63
2021/12/04 07:31:17;;;;;;;12.60;7.60;;;;;;;3.10;100.00;97001.81;4990065;28;103370;-64
2021/12/04 07:33:46;;;;;;;9.77;7.60;;;;;;;3.08;100.00;97003.72;4982151;28;103198;-64
2021/12/04 07:36:14;;;;;;;11.17;8.17;;;;;;;3.03;100.00;96998.81;4984273;28;102691;-64
2021/12/04 07:38:44;;;;;;;10.50;7.83;;;;;;;3.03;100.00;96997.97;4990613;28;103581;-64
2021/12/04 07:41:12;;;;;;;11.30;8.47;;;;;;;3.08;100.00;96996.72;4989593;28;102867;-63
2021/12/04 07:43:42;;;;;;;12.40;8.87;;;;;;;3.08;100.00;96998.50;4989335;28;103245;-63
2021/12/04 07:46:12;;;;;;;11.33;9.27;;;;;;;3.09;100.00;96990.53;4988934;28;103076;-64
2021/12/04 07:48:40;;;;;;;15.10;9.03;;;;;;;3.13;100.00;96988.56;4983355;28;102891;-64
2021/12/04 07:51:09;;;;;;;12.93;8.33;;;;;;;3.15;100.00;96987.50;4966702;28;104225;-63
2021/12/04 07:53:37;;;;;;;10.07;8.20;;;;;;;3.16;100.00;96997.03;4975886;28;103176;-64
2021/12/04 07:56:06;;;;;;;11.70;7.87;;;;;;;3.24;100.00;97001.69;4990028;28;102741;-66
2021/12/04 07:58:35;;;;;;;8.07;7.13;;;;;;;3.47;100.00;96986.09;4984312;28;102751;-64
2021/12/04 08:01:03;;;;;;;9.63;7.77;;;;;;;3.41;100.00;96988.31;4988484;28;103296;-64
2021/12/04 08:03:33;;;;;;;11.23;8.40;;;;;;;3.46;100.00;96991.41;4978356;28;105460;-66
2021/12/04 08:06:01;;;;;;;10.73;7.73;;;;;;;3.44;100.00;96993.31;4995129;28;103269;-66
2021/12/04 08:08:32;;;;;;;11.10;8.27;;;;;;;3.43;100.00;96989.84;4991676;28;104143;-66
2021/12/04 08:11:03;;;;;;;10.43;8.17;;;;;;;3.47;100.00;96987.88;4993539;28;103219;-66
2021/12/04 08:13:32;;;;;;;10.80;8.03;;;;;;;3.63;100.00;96978.00;4989342;28;103142;-66
2021/12/04 08:16:00;;;;;;;11.73;8.93;;;;;;;3.74;100.00;96978.06;4993202;28;102753;-65
2021/12/04 08:18:28;;;;;;;10.73;8.47;;;;;;;3.91;100.00;96975.06;4985987;28;102835;-66
2021/12/04 08:20:59;;;;;;;9.57;7.63;;;;;;;4.04;100.00;96977.63;4992581;28;103322;-65
2021/12/04 08:23:27;;;;;;;12.07;7.90;;;;;;;4.16;100.00;96978.50;4992853;28;103807;-65
2021/12/04 08:25:56;;;;;;;6.37;5.47;;;;;;;4.27;100.00;96968.91;4993483;28;103412;-66
2021/12/04 08:28:24;;;;;;;7.00;5.10;;;;;;;4.43;100.00;96968.63;4993553;28;104114;-67
2021/12/04 08:30:53;;;;;;;6.10;5.47;;;;;;;4.54;100.00;96964.25;4991342;28;103511;-66
2021/12/04 08:33:21;;;;;;;5.10;4.53;;;;;;;4.62;100.00;96974.13;4989374;28;103895;-65
2021/12/04 08:35:49;;;;;;;5.37;4.73;;;;;;;4.71;100.00;96968.22;4992459;28;102839;-66
2021/12/04 08:38:19;;;;;;;8.67;6.13;;;;;;;4.73;100.00;96974.16;4992243;28;104729;-65
2021/12/04 08:40:47;;;;;;;5.23;3.87;;;;;;;4.86;100.00;96964.41;4993049;28;103265;-66
2021/12/04 08:43:15;;;;;;;5.73;4.47;;;;;;;4.94;100.00;96964.66;4991456;28;103237;-64
2021/12/04 08:45:43;;;;;;;4.73;3.97;;;;;;;5.05;100.00;96961.22;4991508;28;102857;-67
2021/12/04 08:48:13;;;;;;;3.53;3.03;;;;;;;5.16;100.00;96962.06;4991225;28;103917;-65
2021/12/04 08:50:41;;;;;;;4.30;3.90;;;;;;;5.23;100.00;96971.09;4990460;28;104690;-66
2021/12/04 08:53:10;;;;;;;4.73;3.73;;;;;;;5.25;100.00;96958.72;4991678;28;103239;-66
2021/12/04 08:55:42;;;;;;;5.43;4.20;;;;;;;5.33;100.00;96954.69;4991092;28;103208;-66
2021/12/04 08:58:13;;;;;;;3.40;3.10;;;;;;;5.42;100.00;96964.44;4989968;28;104022;-66
2021/12/04 09:00:49;;;;;;;4.70;2.63;;;;;;;5.44;100.00;96957.28;4990761;28;103285;-66
2021/12/04 09:03:20;;;;;;;4.80;4.37;;;;;;;5.52;100.00;96958.34;4990674;28;103231;-66
2021/12/04 09:05:50;;;;;;;3.33;3.03;;;;;;;5.60;100.00;96963.81;4988025;28;102828;-66
2021/12/04 09:08:19;;;;;;;3.70;3.07;;;;;;;5.62;100.00;96955.81;4991584;28;104020;-66
2021/12/04 09:10:53;;;;;;;3.00;2.77;;;;;;;5.70;100.00;96956.88;4991402;28;103266;-66
2021/12/04 09:13:24;;;;;;;4.23;3.83;;;;;;;5.74;100.00;96949.59;4990820;28;103277;-66
2021/12/04 09:15:52;;;;;;;3.13;2.53;;;;;;;5.80;100.00;96944.72;4990099;28;102646;-66
2021/12/04 09:18:21;;;;;;;2.40;2.10;;;;;;;5.90;100.00;96950.06;4991059;28;102614;-66
2021/12/04 09:20:50;;;;;;;2.53;2.33;;;;;;;5.96;100.00;96949.56;4991030;28;104181;-66
2021/12/04 09:23:20;;;;;;;2.80;2.50;;;;;;;5.92;100.00;96945.53;4989115;28;103204;-66
2021/12/04 09:25:53;;;;;;;2.60;2.40;;;;;;;6.00;100.00;96951.00;4989511;28;102725;-66
2021/12/04 09:28:25;;;;;;;3.13;2.60;;;;;;;6.07;100.00;96946.91;4992029;28;102713;-66
2021/12/04 09:31:13;;;;;;;2.77;2.23;;;;;;;6.09;100.00;96944.16;4990036;28;103285;-66
2021/12/04 10:35:12;;;;;;;4.80;2.43;;;;;;;7.45;100.00;96849.25;4968370;28;102767;-64
2021/12/04 10:37:50;;;;;;;2.67;2.37;;;;;;;7.46;100.00;96840.41;4990381;28;103283;-65
2021/12/04 10:40:23;;;;;;;4.33;2.23;;;;;;;7.50;100.00;96835.69;4983211;28;103359;-66
2021/12/04 10:42:56;;;;;;;3.23;2.30;;;;;;;7.66;100.00;96830.75;4994881;28;103138;-65
2021/12/04 10:45:33;;;;;;;3.07;2.60;;;;;;;7.69;100.00;96819.94;4991096;28;104125;-64
2021/12/04 10:48:08;;;;;;;2.60;2.40;;;;;;;7.78;100.00;96807.75;4982541;28;103237;-66
2021/12/04 10:50:43;;;;;;;2.50;2.30;;;;;;;7.82;100.00;96809.16;4991590;28;103242;-65
2021/12/04 10:53:19;;;;;;;5.40;2.97;;;;;;;7.85;100.00;96808.88;4973319;28;103105;-65
2021/12/04 10:55:51;;;;;;;4.07;3.67;;;;;;;7.84;100.00;96796.69;4992279;28;102671;-65
2021/12/04 10:58:48;;;;;;;3.97;3.23;;;;;;;7.95;100.00;96799.19;4986992;28;103214;-65
2021/12/04 11:01:36;;;;;;;3.57;2.60;;;;;;;7.96;100.00;96790.31;4993390;28;103353;-64
2021/12/04 11:04:21;;;;;;;1.53;1.43;;;;;;;8.12;100.00;96780.06;4980758;28;102763;-65
2021/12/04 11:21:11;;;;;;;4.17;1.40;;;;;;;8.64;100.00;96755.84;4989075;28;103178;-65
2021/12/04 11:38:16;;;;;;;1.03;0.93;;;;;;;8.92;100.00;96726.88;4978227;28;102870;-67
2021/12/04 11:44:01;;;;;;;0.93;0.83;;;;;;;8.94;100.00;96724.91;4988555;28;103264;-70
2021/12/04 11:47:00;;;;;;;1.17;0.83;;;;;;;8.97;100.00;96729.88;4981523;28;103019;-71
2021/12/04 11:49:38;;;;;;;1.50;1.00;;;;;;;9.00;100.00;96734.84;4983447;28;102609;-71
2021/12/04 11:52:14;;;;;;;2.13;1.40;;;;;;;8.97;100.00;96730.72;4976043;28;103976;-71
2021/12/04 11:54:50;;;;;;;1.20;0.90;;;;;;;9.06;100.00;96713.19;4994172;28;102934;-65
2021/12/04 11:57:27;;;;;;;1.60;1.10;;;;;;;9.06;100.00;96702.66;4996811;28;103301;-65
2021/12/04 12:00:09;;;;;;;1.63;0.70;;;;;;;9.09;100.00;96697.91;4979020;28;102728;-64
2021/12/04 12:02:38;;;;;;;0.97;0.67;;;;;;;9.15;100.00;96691.22;4994739;28;102689;-64
2021/12/04 12:05:12;;;;;;;2.43;0.60;;;;;;;9.17;100.00;96684.00;4996052;28;103304;-64
2021/12/04 12:07:51;;;;;;;1.83;0.70;;;;;;;9.29;100.00;96683.59;4996535;28;103001;-65
2021/12/04 12:10:22;;;;;;;0.53;0.50;;;;;;;9.28;100.00;96675.84;4979039;28;102870;-66
2021/12/04 12:12:54;;;;;;;0.60;0.60;;;;;;;9.34;100.00;96670.00;4996058;28;102609;-65
2021/12/04 12:15:30;;;;;;;1.23;0.60;;;;;;;9.50;100.00;96670.13;4987619;28;103186;-66
2021/12/04 12:18:11;;;;;;;1.53;0.60;;;;;;;9.52;100.00;96667.31;4992473;28;103216;-66
2021/12/04 12:20:43;;;;;;;0.50;0.50;;;;;;;9.49;100.00;96660.53;4980458;28;102731;-65
2021/12/04 12:23:17;;;;;;;1.53;0.60;;;;;;;9.54;100.00;96660.09;5000820;28;102942;-66
2021/12/04 12:26:05;;;;;;;0.60;0.60;;;;;;;9.55;99.07;96657.31;4998207;28;103312;-67
2021/12/04 12:37:14;;;;;;;0.83;0.63;;;;;;;9.70;99.19;96644.41;4986238;28;104087;-67
2021/12/04 12:39:57;;;;;;;0.50;0.50;;;;;;;9.73;98.80;96639.66;4986764;28;103273;-68
2021/12/04 12:42:31;;;;;;;0.77;0.70;;;;;;;9.69;99.05;96640.91;4979644;28;103113;-67
2021/12/04 12:45:16;;;;;;;0.50;0.50;;;;;;;9.62;100.00;96645.16;4994504;28;102614;-67
2021/12/04 12:47:49;;;;;;;0.73;0.67;;;;;;;9.63;100.00;96644.16;4984344;28;103266;-68
2021/12/04 12:50:30;;;;;;;0.73;0.50;;;;;;;9.62;99.95;96637.25;4998343;28;102899;-68
2021/12/04 12:53:07;;;;;;;1.20;0.77;;;;;;;9.59;100.00;96637.56;4979443;28;102738;-68
2021/12/04 12:55:37;;;;;;;1.13;0.70;;;;;;;9.58;100.00;96633.28;4992925;28;104745;-67
2021/12/04 12:58:19;;;;;;;1.10;0.80;;;;;;;9.61;100.00;96630.31;4997764;28;103291;-66
2021/12/04 13:12:04;;;;;;;0.83;0.60;;;;;;;9.71;100.00;96623.13;4992447;28;103083;-68
2021/12/04 13:14:46;;;;;;;0.80;0.70;;;;;;;9.59;100.00;96618.28;4992975;28;102708;-67
2021/12/04 13:17:17;;;;;;;1.13;0.90;;;;;;;9.60;100.00;96622.59;4972649;28;103922;-67
2021/12/04 13:19:50;;;;;;;0.60;0.60;;;;;;;9.62;100.00;96625.88;4990592;28;103368;-67
2021/12/04 13:22:21;;;;;;;0.87;0.83;;;;;;;9.63;100.00;96617.81;4977779;28;102712;-67
2021/12/04 13:24:54;;;;;;;1.07;0.90;;;;;;;9.63;100.00;96632.78;4989155;28;102592;-67
2021/12/04 13:29:58;;;;;;;1.30;0.83;;;;;;;9.55;100.00;96620.41;4998994;28;104093;-67
2021/12/04 13:32:32;;;;;;;1.10;0.80;;;;;;;9.55;100.00;96617.75;4981308;28;103439;-67
2021/12/04 13:35:09;;;;;;;1.03;0.70;;;;;;;9.52;100.00;96619.88;4982984;28;102826;-67
2021/12/04 13:37:39;;;;;;;1.50;1.03;;;;;;;9.58;100.00;96616.63;4982192;28;102791;-67
2021/12/04 13:40:12;;;;;;;1.23;0.77;;;;;;;9.57;100.00;96610.50;4994667;28;103344;-67
2021/12/04 13:42:41;;;;;;;1.00;0.90;;;;;;;9.57;100.00;96607.88;4983847;28;103161;-67
2021/12/04 13:45:18;;;;;;;1.37;1.00;;;;;;;9.54;100.00;96613.50;4978219;28;105658;-67
2021/12/04 13:47:52;;;;;;;1.97;0.90;;;;;;;9.56;100.00;96606.25;4994149;28;102741;-67
2021/12/04 13:53:17;;;;;;;1.07;0.90;;;;;;;9.58;100.00;96619.25;4979821;28;102979;-68
2021/12/04 13:55:53;;;;;;;1.77;1.00;;;;;;;9.58;100.00;96614.81;4999095;28;103073;-67
2021/12/04 13:58:22;;;;;;;0.80;0.80;;;;;;;9.54;100.00;96628.47;5001887;28;102670;-68
2021/12/04 14:00:53;;;;;;;1.73;1.20;;;;;;;9.46;100.00;96631.84;4994415;28;103307;-68
2021/12/04 14:03:24;;;;;;;1.83;0.87;;;;;;;9.44;100.00;96623.28;4986222;28;103223;-67
2021/12/04 14:05:54;;;;;;;2.07;0.83;;;;;;;9.42;100.00;96633.16;4973705;28;102634;-67
2021/12/04 14:08:24;;;;;;;2.23;0.90;;;;;;;9.37;100.00;96638.06;4977277;28;102991;-66
2021/12/04 14:10:54;;;;;;;3.63;1.30;;;;;;;9.35;100.00;96642.63;4979520;28;103323;-66
2021/12/04 14:13:25;;;;;;;1.93;1.10;;;;;;;9.36;100.00;96646.94;4993286;28;103136;-66
2021/12/04 14:15:56;;;;;;;1.20;1.00;;;;;;;9.35;100.00;96640.00;4978070;28;103091;-66
2021/12/04 14:18:30;;;;;;;1.67;1.00;;;;;;;9.31;100.00;96638.66;4991000;28;102901;-66
2021/12/04 14:21:05;;;;;;;2.00;0.90;;;;;;;9.28;100.00;96633.69;4997116;28;103371;-66
2021/12/04 14:23:36;;;;;;;1.20;1.00;;;;;;;9.22;100.00;96634.31;4983558;28;103221;-67
2021/12/04 14:26:05;;;;;;;1.10;0.90;;;;;;;9.21;100.00;96637.91;4987150;28;102723;-66
2021/12/04 14:28:41;;;;;;;1.40;0.93;;;;;;;9.15;100.00;96636.72;4992118;28;102698;-67
2021/12/04 14:31:15;;;;;;;0.83;0.73;;;;;;;9.22;100.00;96644.84;4988990;28;103213;-67
2021/12/04 14:33:43;;;;;;;1.37;0.80;;;;;;;9.22;100.00;96637.78;4992990;28;103228;-67
2021/12/04 14:36:13;;;;;;;1.47;1.10;;;;;;;9.23;100.00;96641.25;4984224;28;102976;-67
2021/12/04 14:38:44;;;;;;;1.10;1.00;;;;;;;9.23;100.00;96649.16;4987642;28;102715;-67